Startpagina
METAR-TAF:

METAR-TAF

Vliegvelden :

Victoria Falls, Zimbabwe

breedte: 18-06S, lengte: 025-51E, hoogte: 1061 m

Actueel weer

Dit bericht is 21 uur en het 46 minuten geleden gemaakt, om 07:00 UTC
Wind 8 kt uit het oostzuidoosten
Temperatuur 16°C
Vochtigheid 42%
Druk 1029 hPa
Zicht 10 km of meer
geen wolken onder 1500 m en geen cumulonimbus

METAR: FVFA 120700Z 11008KT CAVOK 16/03 Q1029 NOSIG

Tijdstip: 06:46 (04:46 UTC)


TAF: ontbreekt

Waarnemingen en weersverwachtingen van meer dan 4000 vliegvelden (METAR en TAF).

De beschikbare stations zijn de gele en rode punten op de kaart.

Ga met uw muis naar het station om de naam te zien.

Klik dan om waarnemingen en weersverwachtingen te zien.

kaart wijzigen: klik op de groene knoppen met een zwart kruis om in te zoomen, op de groene knop met een streepje om uit te zoomen of op de groene pijlen voor aangrenzende kaarten.


METAR-TAF: